Time;durP1;ratioP1;P1;durP2;ratioP2;P2;SDS_P1;SDS_P2;PMS_P1;PMS_P2;Temp;Humidity;BMP_temperature;BMP_pressure;BME280_temperature;BME280_humidity;BME280_pressure;Samples;Min_cycle;Max_cycle;Signal;HPM_P1;HPM_P2
2022/10/24 00:01:31;;;;;;;7.83;2.83;;;15.30;99.90;;;;;;5057328;28;20170;-71
2022/10/24 00:03:57;;;;;;;3.90;2.17;;;15.20;99.90;;;;;;5055383;28;20245;-70
2022/10/24 00:06:23;;;;;;;4.37;2.73;;;15.20;99.90;;;;;;5067546;28;20183;-71
2022/10/24 00:08:49;;;;;;;9.10;2.30;;;15.20;99.90;;;;;;5058172;28;20434;-71
2022/10/24 00:11:23;;;;;;;3.97;2.60;;;15.20;99.90;;;;;;5059432;28;20166;-69
2022/10/24 00:13:50;;;;;;;5.37;2.67;;;15.10;99.90;;;;;;5058095;28;20674;-70
2022/10/24 00:16:15;;;;;;;9.77;2.67;;;15.10;99.90;;;;;;5055440;28;20432;-70
2022/10/24 00:18:42;;;;;;;8.87;2.83;;;15.20;99.90;;;;;;5054827;28;20932;-70
2022/10/24 00:21:08;;;;;;;6.03;2.97;;;15.20;99.90;;;;;;5057890;28;20620;-70
2022/10/24 00:23:34;;;;;;;4.97;2.33;;;15.20;99.90;;;;;;5056866;28;20428;-69
2022/10/24 00:26:02;;;;;;;6.80;2.70;;;15.10;99.90;;;;;;5068931;28;20416;-70
2022/10/24 00:28:29;;;;;;;3.17;2.20;;;15.20;99.90;;;;;;5074608;28;20501;-69
2022/10/24 00:30:55;;;;;;;4.10;2.90;;;15.20;99.90;;;;;;5074645;28;20407;-69
2022/10/24 00:33:21;;;;;;;7.07;3.07;;;15.20;99.90;;;;;;5074616;28;20977;-71
2022/10/24 00:35:46;;;;;;;4.37;3.33;;;15.20;99.90;;;;;;5074296;28;20895;-70
2022/10/24 00:38:12;;;;;;;4.60;2.23;;;15.20;99.90;;;;;;5056190;28;20482;-70
2022/10/24 00:40:38;;;;;;;9.07;2.80;;;15.20;99.90;;;;;;5054812;28;20253;-70
2022/10/24 00:43:03;;;;;;;7.80;2.23;;;15.20;99.90;;;;;;5054479;28;20178;-69
2022/10/24 00:45:56;;;;;;;5.67;3.20;;;15.20;99.90;;;;;;5054169;28;20167;-70
2022/10/24 00:48:32;;;;;;;6.63;2.80;;;15.20;99.90;;;;;;5057447;28;20680;-70
2022/10/24 00:51:06;;;;;;;9.23;3.47;;;15.20;99.90;;;;;;5073945;28;20435;-71
2022/10/24 00:53:36;;;;;;;5.23;2.50;;;15.20;99.90;;;;;;5073863;28;20485;-71
2022/10/24 00:56:04;;;;;;;4.37;2.53;;;15.20;99.90;;;;;;5074004;28;20458;-71
2022/10/24 00:58:32;;;;;;;7.10;2.87;;;15.10;99.90;;;;;;5075754;28;20421;-70
2022/10/24 01:00:58;;;;;;;4.20;2.73;;;15.10;99.90;;;;;;5066351;28;20413;-69
2022/10/24 01:03:24;;;;;;;3.37;2.10;;;15.10;99.90;;;;;;5054048;28;20397;-69
2022/10/24 01:06:06;;;;;;;6.83;3.17;;;15.10;99.90;;;;;;5053820;28;20421;-69
2022/10/24 01:08:44;;;;;;;5.87;2.20;;;15.00;99.90;;;;;;5053995;28;20865;-69
2022/10/24 01:11:24;;;;;;;4.50;2.90;;;15.00;99.90;;;;;;5086331;28;20907;-70
2022/10/24 01:14:18;;;;;;;11.40;2.40;;;14.90;99.90;;;;;;5069022;28;20420;-71
2022/10/24 01:17:08;;;;;;;4.57;2.37;;;14.90;99.90;;;;;;5076300;28;20393;-71
2022/10/24 01:20:08;;;;;;;5.23;1.97;;;14.90;99.90;;;;;;5074553;28;20413;-71
2022/10/24 01:23:01;;;;;;;10.90;2.87;;;14.80;99.90;;;;;;5073971;28;20392;-71
2022/10/24 01:26:12;;;;;;;3.17;1.90;;;14.90;99.90;;;;;;5063526;28;20417;-71
2022/10/24 01:28:58;;;;;;;5.50;2.50;;;14.80;99.90;;;;;;5053016;28;20433;-71
2022/10/24 01:31:33;;;;;;;4.33;2.40;;;14.70;99.90;;;;;;5053414;28;20451;-70
2022/10/24 01:34:06;;;;;;;17.57;3.60;;;14.70;99.90;;;;;;5054654;28;20906;-71
2022/10/24 01:36:58;;;;;;;7.23;2.50;;;14.70;99.90;;;;;;5057785;28;20445;-70
2022/10/24 01:39:29;;;;;;;6.80;2.77;;;14.70;99.90;;;;;;5074322;28;20451;-71
2022/10/24 01:41:56;;;;;;;8.20;2.47;;;14.60;99.90;;;;;;5076802;28;20659;-71
2022/10/24 01:44:31;;;;;;;8.73;2.53;;;14.60;99.90;;;;;;5074284;28;20424;-71
2022/10/24 01:47:03;;;;;;;17.37;3.50;;;14.60;99.90;;;;;;5049764;28;20493;-70
2022/10/24 01:49:34;;;;;;;13.83;3.20;;;14.60;99.90;;;;;;5035404;28;20990;-71
2022/10/24 01:52:03;;;;;;;11.13;2.97;;;14.60;99.90;;;;;;5036541;28;20462;-71
2022/10/24 01:54:30;;;;;;;2.63;2.40;;;14.60;99.90;;;;;;5037799;28;20406;-70
2022/10/24 01:56:56;;;;;;;4.60;3.70;;;14.60;99.90;;;;;;5075166;28;20738;-70
2022/10/24 01:59:27;;;;;;;4.20;2.70;;;14.60;99.90;;;;;;5072861;28;20447;-70
2022/10/24 02:02:07;;;;;;;8.00;3.63;;;14.60;99.90;;;;;;5073177;28;20177;-70
2022/10/24 02:04:36;;;;;;;7.53;2.70;;;14.50;99.90;;;;;;5072482;28;20419;-70
2022/10/24 02:07:06;;;;;;;4.03;3.57;;;14.50;99.90;;;;;;5065599;28;20456;-69
2022/10/24 02:09:35;;;;;;;2.93;2.00;;;14.50;99.90;;;;;;5088810;28;20437;-71
2022/10/24 02:12:03;;;;;;;4.23;2.60;;;14.50;99.90;;;;;;5087465;28;20516;-71
2022/10/24 02:14:38;;;;;;;5.13;2.63;;;14.40;99.90;;;;;;5055664;28;20856;-70
2022/10/24 02:17:04;;;;;;;5.57;2.93;;;14.40;99.90;;;;;;5052817;28;20412;-69
2022/10/24 02:19:31;;;;;;;8.77;2.70;;;14.40;99.90;;;;;;5063377;28;20941;-71
2022/10/24 02:22:41;;;;;;;2.50;2.10;;;14.40;99.90;;;;;;5072657;28;20416;-70
2022/10/24 02:25:16;;;;;;;5.20;2.37;;;14.40;99.90;;;;;;5070901;28;20482;-70
2022/10/24 02:28:05;;;;;;;6.27;2.87;;;14.40;99.90;;;;;;5072540;28;20412;-69
2022/10/24 02:30:38;;;;;;;4.20;2.87;;;14.40;99.90;;;;;;5069982;28;20400;-69
2022/10/24 02:33:04;;;;;;;8.43;2.97;;;14.40;99.90;;;;;;5052403;28;20460;-69
2022/10/24 02:35:33;;;;;;;4.97;2.77;;;14.40;99.90;;;;;;5052087;28;20779;-70
2022/10/24 02:38:22;;;;;;;7.13;3.67;;;14.40;99.90;;;;;;5054780;28;20420;-70
2022/10/24 02:40:50;;;;;;;7.33;3.50;;;14.30;99.90;;;;;;5054102;28;20409;-70
2022/10/24 02:43:18;;;;;;;5.80;2.90;;;14.30;99.90;;;;;;5058832;28;20456;-71
2022/10/24 02:45:44;;;;;;;5.57;2.60;;;14.30;99.90;;;;;;5073373;28;20798;-69
2022/10/24 02:48:13;;;;;;;4.97;2.97;;;14.30;99.90;;;;;;5072134;28;20428;-69
2022/10/24 02:50:40;;;;;;;6.27;2.23;;;14.30;99.90;;;;;;5072637;28;20426;-71
2022/10/24 02:53:08;;;;;;;7.23;2.80;;;14.30;99.90;;;;;;5070930;28;20472;-71
2022/10/24 02:55:33;;;;;;;5.73;2.63;;;14.30;99.90;;;;;;5071494;28;20417;-70
2022/10/24 02:57:59;;;;;;;10.03;2.20;;;14.30;99.90;;;;;;5073251;28;20407;-71
2022/10/24 03:00:24;;;;;;;4.17;2.63;;;14.30;99.90;;;;;;5072361;28;20186;-70
2022/10/24 03:02:50;;;;;;;5.17;2.40;;;14.30;99.90;;;;;;5069979;28;20181;-70
2022/10/24 03:05:16;;;;;;;6.53;2.60;;;14.40;99.90;;;;;;5087144;28;20181;-70
2022/10/24 03:07:41;;;;;;;4.40;2.43;;;14.40;99.90;;;;;;5052816;28;20182;-71
2022/10/24 03:10:07;;;;;;;3.63;2.57;;;14.40;99.90;;;;;;5084135;28;20244;-71
2022/10/24 03:12:33;;;;;;;12.00;2.67;;;14.40;99.90;;;;;;5084185;28;20206;-70
2022/10/24 03:14:58;;;;;;;7.43;2.67;;;14.40;99.90;;;;;;5053916;28;20529;-70
2022/10/24 03:17:24;;;;;;;6.70;2.70;;;14.30;99.90;;;;;;5071958;28;20167;-71
2022/10/24 03:19:49;;;;;;;3.93;2.90;;;14.30;99.90;;;;;;5071797;28;20193;-71
2022/10/24 03:22:15;;;;;;;3.17;2.40;;;14.20;99.90;;;;;;5071472;28;20170;-70
2022/10/24 03:24:40;;;;;;;13.37;3.13;;;14.20;99.90;;;;;;5071551;28;20166;-70
2022/10/24 03:27:06;;;;;;;5.93;3.10;;;14.20;99.90;;;;;;5072890;28;20523;-71
2022/10/24 03:29:31;;;;;;;5.50;2.73;;;14.20;99.90;;;;;;5055617;28;20648;-70
2022/10/24 03:31:57;;;;;;;4.00;2.13;;;14.10;99.90;;;;;;5056649;28;20193;-71
2022/10/24 03:34:22;;;;;;;4.10;2.10;;;14.10;99.90;;;;;;5056667;28;20655;-70
2022/10/24 03:36:48;;;;;;;6.87;3.10;;;14.10;99.90;;;;;;5086936;28;20201;-71
2022/10/24 03:39:13;;;;;;;7.07;3.30;;;14.10;99.90;;;;;;5056002;28;20197;-71
2022/10/24 03:41:39;;;;;;;9.43;2.80;;;14.10;99.90;;;;;;5072205;28;20239;-70
2022/10/24 03:44:04;;;;;;;4.37;2.57;;;14.10;99.90;;;;;;5073345;28;20178;-70
2022/10/24 03:46:30;;;;;;;4.87;2.40;;;14.10;99.90;;;;;;5072133;28;20667;-71
2022/10/24 03:48:55;;;;;;;5.13;2.67;;;14.10;99.90;;;;;;5073070;28;20222;-71
2022/10/24 03:51:21;;;;;;;3.70;2.60;;;14.10;99.90;;;;;;5070157;28;20183;-70
2022/10/24 03:53:46;;;;;;;6.10;2.67;;;14.10;99.90;;;;;;5053198;28;20207;-70
2022/10/24 03:56:12;;;;;;;7.63;2.73;;;14.10;99.90;;;;;;5051501;28;20217;-70
2022/10/24 03:58:37;;;;;;;13.40;3.00;;;14.10;99.90;;;;;;5051570;28;20187;-70
2022/10/24 04:01:03;;;;;;;4.10;2.30;;;14.00;99.90;;;;;;5054451;28;20171;-70
2022/10/24 04:03:29;;;;;;;4.87;3.00;;;14.00;99.90;;;;;;5057458;28;20182;-71
2022/10/24 04:05:54;;;;;;;7.37;2.97;;;14.00;99.90;;;;;;5073194;28;21040;-71
2022/10/24 04:08:20;;;;;;;6.37;2.97;;;14.00;99.90;;;;;;5072288;28;20194;-71
2022/10/24 04:10:47;;;;;;;3.30;2.20;;;13.90;99.90;;;;;;5073978;28;20174;-71
2022/10/24 04:13:12;;;;;;;5.43;2.53;;;13.80;99.90;;;;;;5071990;28;20273;-71
2022/10/24 04:15:38;;;;;;;3.70;2.73;;;13.80;99.90;;;;;;5070065;28;20462;-71
2022/10/24 04:18:04;;;;;;;4.07;3.10;;;13.70;99.90;;;;;;5053688;28;20278;-71
2022/10/24 04:20:29;;;;;;;7.23;2.40;;;13.70;99.90;;;;;;5053342;28;20163;-71
2022/10/24 04:22:55;;;;;;;7.80;2.50;;;13.60;99.90;;;;;;5055309;28;20175;-71
2022/10/24 04:25:20;;;;;;;4.50;2.97;;;13.60;99.90;;;;;;5055115;28;20171;-71
2022/10/24 04:27:46;;;;;;;3.70;2.03;;;13.50;99.90;;;;;;5060243;28;20243;-70
2022/10/24 04:30:13;;;;;;;6.93;2.30;;;13.60;99.90;;;;;;5076187;28;20177;-70
2022/10/24 04:32:38;;;;;;;5.20;2.50;;;13.60;99.90;;;;;;5078965;28;20190;-71
2022/10/24 04:35:05;;;;;;;4.20;3.00;;;13.70;99.90;;;;;;5075666;28;20993;-70
2022/10/24 04:37:31;;;;;;;2.30;1.90;;;13.70;99.90;;;;;;5055962;28;20174;-71
2022/10/24 04:39:57;;;;;;;6.27;1.77;;;13.80;99.90;;;;;;5058888;28;20437;-71
2022/10/24 04:42:23;;;;;;;8.10;2.33;;;13.80;99.90;;;;;;5059313;28;20766;-70
2022/10/24 04:44:49;;;;;;;4.90;1.70;;;13.90;99.90;;;;;;5058311;28;20182;-71
2022/10/24 04:47:15;;;;;;;2.63;1.67;;;13.90;99.90;;;;;;5075895;28;20412;-71
2022/10/24 04:49:40;;;;;;;2.20;1.00;;;14.00;99.90;;;;;;5074322;28;20255;-71
2022/10/24 04:52:06;;;;;;;3.00;1.07;;;14.10;99.90;;;;;;5073026;28;20448;-70
2022/10/24 04:54:31;;;;;;;2.27;1.30;;;14.30;99.90;;;;;;5072775;28;20261;-71
2022/10/24 04:56:57;;;;;;;1.60;1.20;;;14.40;99.90;;;;;;5055244;28;20170;-71
2022/10/24 04:59:23;;;;;;;2.27;1.10;;;14.50;99.90;;;;;;5054150;28;20211;-71
2022/10/24 05:01:48;;;;;;;1.93;1.03;;;14.60;99.90;;;;;;5054198;28;20182;-71
2022/10/24 05:04:14;;;;;;;3.80;2.13;;;14.60;99.90;;;;;;5053865;28;20246;-72
2022/10/24 05:06:40;;;;;;;3.47;2.37;;;14.60;99.90;;;;;;5070102;28;20170;-71
2022/10/24 05:09:05;;;;;;;4.17;1.83;;;14.50;99.90;;;;;;5073913;28;20248;-71
2022/10/24 05:11:31;;;;;;;3.33;1.83;;;14.40;99.90;;;;;;5076045;28;20197;-71
2022/10/24 05:13:57;;;;;;;2.80;2.10;;;14.40;99.90;;;;;;5074278;28;20175;-71
2022/10/24 05:16:22;;;;;;;6.80;2.80;;;14.40;99.90;;;;;;5076785;28;20495;-71
2022/10/24 05:18:48;;;;;;;5.83;1.30;;;14.30;99.90;;;;;;5058883;28;20217;-71
2022/10/24 05:21:14;;;;;;;4.50;1.77;;;14.20;99.90;;;;;;5092835;28;20170;-71
2022/10/24 05:23:40;;;;;;;2.17;1.40;;;14.20;99.90;;;;;;5058727;28;20170;-71
2022/10/24 05:26:05;;;;;;;4.30;1.40;;;14.30;99.90;;;;;;5058566;28;20269;-70
2022/10/24 05:28:31;;;;;;;3.50;1.30;;;14.40;99.90;;;;;;5061162;28;20201;-71
2022/10/24 05:30:57;;;;;;;1.27;0.90;;;14.60;99.90;;;;;;5077456;28;20248;-71
2022/10/24 05:33:23;;;;;;;2.43;1.10;;;14.80;99.90;;;;;;5073544;28;20440;-71
2022/10/24 05:35:49;;;;;;;4.23;1.33;;;14.90;99.90;;;;;;5076490;28;20170;-71
2022/10/24 05:38:15;;;;;;;1.77;1.30;;;15.00;99.90;;;;;;5075474;28;20188;-71
2022/10/24 05:40:40;;;;;;;14.67;2.30;;;15.10;99.90;;;;;;5074868;28;20421;-75
2022/10/24 05:43:06;;;;;;;1.70;1.30;;;15.10;99.90;;;;;;5058581;28;20171;-71
2022/10/24 05:45:31;;;;;;;1.63;1.40;;;15.20;99.90;;;;;;5055154;28;20247;-71
2022/10/24 05:47:57;;;;;;;2.80;1.10;;;15.20;99.90;;;;;;5086405;28;20186;-71
2022/10/24 05:50:23;;;;;;;2.43;1.10;;;15.30;99.90;;;;;;5057581;28;20190;-71
2022/10/24 05:52:48;;;;;;;1.70;0.90;;;15.40;99.90;;;;;;5055236;28;20340;-70
2022/10/24 05:55:14;;;;;;;3.40;1.33;;;15.40;99.90;;;;;;5055103;28;20174;-71
2022/10/24 05:57:40;;;;;;;5.90;1.00;;;15.30;99.90;;;;;;5054516;28;20182;-70
2022/10/24 06:00:07;;;;;;;1.90;1.00;;;15.30;99.90;;;;;;5053110;28;20327;-70
2022/10/24 06:02:33;;;;;;;1.43;1.00;;;15.30;99.90;;;;;;5052971;28;20217;-70
2022/10/24 06:04:58;;;;;;;1.93;1.13;;;15.20;99.90;;;;;;5058603;28;20451;-71
2022/10/24 06:07:24;;;;;;;1.83;1.07;;;15.20;99.90;;;;;;5072772;28;20174;-71
2022/10/24 06:09:50;;;;;;;1.43;0.83;;;15.20;99.90;;;;;;5073020;28;20198;-70
2022/10/24 06:12:16;;;;;;;1.90;1.00;;;15.20;99.90;;;;;;5071756;28;20197;-69
2022/10/24 06:14:41;;;;;;;2.90;1.10;;;15.20;99.90;;;;;;5074584;28;20261;-71
2022/10/24 06:17:10;;;;;;;2.20;1.40;;;15.20;99.90;;;;;;5063479;28;20175;-71
2022/10/24 06:19:37;;;;;;;1.77;0.80;;;15.20;99.90;;;;;;5056243;28;20243;-71
2022/10/24 06:22:05;;;;;;;4.10;1.30;;;15.20;99.90;;;;;;5084901;28;20994;-71
2022/10/24 06:24:33;;;;;;;4.50;1.80;;;15.20;99.90;;;;;;5052279;28;20472;-70
2022/10/24 06:26:59;;;;;;;1.70;1.50;;;15.20;99.90;;;;;;5052580;28;20504;-70
2022/10/24 06:29:24;;;;;;;5.13;2.27;;;15.10;99.90;;;;;;5066989;28;20471;-70
2022/10/24 06:31:50;;;;;;;3.17;1.20;;;15.20;99.90;;;;;;5074199;28;20269;-71
2022/10/24 06:34:16;;;;;;;2.50;1.10;;;15.20;99.90;;;;;;5071188;28;20181;-69
2022/10/24 06:36:41;;;;;;;1.77;1.20;;;15.30;99.90;;;;;;5072440;28;20170;-71
2022/10/24 06:39:07;;;;;;;6.30;1.40;;;15.40;99.90;;;;;;5075643;28;20197;-70
2022/10/24 06:41:32;;;;;;;3.63;1.00;;;15.40;99.90;;;;;;5061755;28;20659;-70
2022/10/24 06:43:58;;;;;;;6.27;1.60;;;15.40;99.90;;;;;;5056365;28;20227;-71
2022/10/24 06:46:23;;;;;;;2.40;1.20;;;15.50;99.90;;;;;;5055995;28;20178;-71
2022/10/24 06:48:53;;;;;;;3.60;1.37;;;15.50;99.90;;;;;;5056811;28;20554;-71
2022/10/24 06:51:19;;;;;;;1.40;1.00;;;15.60;99.90;;;;;;5054404;28;20587;-70
2022/10/24 06:53:45;;;;;;;1.70;0.93;;;15.70;99.90;;;;;;5064967;28;20472;-71
2022/10/24 06:56:11;;;;;;;5.50;1.30;;;15.60;99.90;;;;;;5074954;28;20163;-70
2022/10/24 06:58:37;;;;;;;1.90;0.70;;;15.70;99.90;;;;;;5076423;28;20186;-70
2022/10/24 07:01:08;;;;;;;3.17;1.47;;;15.80;99.90;;;;;;5076898;28;20407;-70
2022/10/24 07:03:34;;;;;;;1.97;1.20;;;15.90;99.90;;;;;;5075944;28;20174;-70
2022/10/24 07:06:05;;;;;;;1.37;0.90;;;15.90;99.90;;;;;;5061759;28;20471;-71
2022/10/24 07:08:31;;;;;;;5.00;1.70;;;15.90;99.90;;;;;;5088031;28;20217;-70
2022/10/24 07:10:56;;;;;;;3.53;1.00;;;16.00;99.90;;;;;;5055660;28;20440;-70
2022/10/24 07:13:22;;;;;;;1.90;1.07;;;16.10;99.90;;;;;;5056340;28;20191;-71
2022/10/24 07:15:47;;;;;;;1.30;0.90;;;16.00;99.90;;;;;;5052073;28;20193;-70
2022/10/24 07:18:15;;;;;;;2.30;1.10;;;16.10;99.90;;;;;;5064665;28;20217;-70
2022/10/24 07:20:40;;;;;;;3.17;1.03;;;16.10;99.90;;;;;;5074595;28;20198;-71
2022/10/24 07:23:06;;;;;;;1.40;0.90;;;16.20;99.90;;;;;;5077916;28;20431;-71
2022/10/24 07:25:31;;;;;;;1.50;0.80;;;16.20;99.90;;;;;;5078142;28;20174;-70
2022/10/24 07:27:57;;;;;;;3.40;1.27;;;16.40;99.90;;;;;;5074736;28;20245;-71
2022/10/24 07:30:22;;;;;;;2.17;1.20;;;16.40;99.90;;;;;;5056485;28;20175;-70
2022/10/24 07:32:48;;;;;;;1.23;0.90;;;16.50;99.90;;;;;;5084009;28;20696;-70
2022/10/24 07:35:14;;;;;;;2.90;1.20;;;16.60;99.90;;;;;;5051383;28;20693;-71
2022/10/24 07:37:39;;;;;;;3.67;1.00;;;16.70;99.90;;;;;;5051130;28;20170;-71
2022/10/24 07:40:05;;;;;;;2.70;0.73;;;16.80;99.90;;;;;;5086177;28;20182;-71
2022/10/24 07:42:30;;;;;;;2.80;1.80;;;16.80;99.90;;;;;;5070655;28;20170;-70
2022/10/24 07:44:56;;;;;;;4.50;1.63;;;17.00;99.90;;;;;;5071396;28;20762;-70
2022/10/24 07:47:21;;;;;;;7.53;2.13;;;17.00;99.90;;;;;;5070358;28;20181;-70
2022/10/24 07:49:47;;;;;;;2.70;1.17;;;17.20;99.90;;;;;;5071538;28;20209;-70
2022/10/24 07:52:13;;;;;;;2.60;1.10;;;17.20;99.90;;;;;;5071503;28;20187;-70
2022/10/24 07:54:38;;;;;;;1.50;0.70;;;17.30;99.90;;;;;;5051575;28;20421;-70
2022/10/24 07:57:04;;;;;;;3.33;1.30;;;17.20;99.90;;;;;;5056284;28;20243;-70
2022/10/24 07:59:30;;;;;;;2.50;1.20;;;17.30;99.90;;;;;;5085775;28;20672;-71
2022/10/24 08:01:55;;;;;;;2.20;1.00;;;17.30;99.90;;;;;;5053511;28;20182;-70
2022/10/24 08:04:21;;;;;;;3.10;1.03;;;17.40;99.90;;;;;;5056430;28;20528;-72
2022/10/24 08:06:46;;;;;;;1.20;0.70;;;17.40;99.90;;;;;;5078770;28;20229;-70
2022/10/24 08:09:12;;;;;;;2.70;0.90;;;17.40;99.90;;;;;;5082015;28;20250;-71
2022/10/24 08:11:38;;;;;;;5.07;1.30;;;17.60;99.90;;;;;;5082278;28;20285;-71
2022/10/24 08:14:04;;;;;;;5.53;1.47;;;17.70;99.90;;;;;;5082636;28;20181;-72
2022/10/24 08:16:29;;;;;;;1.50;0.80;;;18.00;99.90;;;;;;5079563;28;20404;-70
2022/10/24 08:18:57;;;;;;;5.23;1.00;;;18.50;99.90;;;;;;5060778;28;20225;-70
2022/10/24 08:21:23;;;;;;;5.80;1.50;;;18.90;99.90;;;;;;5061230;28;20234;-70
2022/10/24 08:23:51;;;;;;;2.43;1.10;;;19.30;99.90;;;;;;5061612;28;20483;-70
2022/10/24 08:26:19;;;;;;;3.00;1.00;;;19.80;99.90;;;;;;5062469;28;20567;-70
2022/10/24 08:28:45;;;;;;;1.87;1.10;;;20.60;99.90;;;;;;5093810;28;20436;-71
2022/10/24 08:31:15;;;;;;;2.33;0.80;;;21.30;99.90;;;;;;5081527;28;20400;-70
2022/10/24 08:33:41;;;;;;;1.57;1.00;;;21.50;99.90;;;;;;5080964;28;20460;-72
2022/10/24 08:36:34;;;;;;;3.90;1.37;;;22.00;99.90;;;;;;5080666;28;20423;-72
2022/10/24 08:39:01;;;;;;;1.93;1.20;;;22.00;99.90;;;;;;5038662;28;20464;-70
2022/10/24 08:41:55;;;;;;;2.37;1.20;;;21.90;99.90;;;;;;5073105;28;20417;-71
2022/10/24 08:44:27;;;;;;;2.00;1.07;;;22.10;99.90;;;;;;5057833;28;20428;-71
2022/10/24 08:47:01;;;;;;;3.77;1.10;;;22.00;99.90;;;;;;5077159;28;20443;-71
2022/10/24 08:49:30;;;;;;;4.43;1.80;;;21.60;99.90;;;;;;5072973;28;20456;-71
2022/10/24 08:52:26;;;;;;;5.17;1.20;;;21.30;99.90;;;;;;5071281;28;20511;-71
2022/10/24 08:54:54;;;;;;;1.73;0.97;;;21.00;99.90;;;;;;5054154;28;20416;-72
2022/10/24 08:57:25;;;;;;;2.13;0.93;;;21.40;99.90;;;;;;5054265;28;20433;-72
2022/10/24 08:59:54;;;;;;;4.40;1.60;;;21.70;99.90;;;;;;5053925;28;20405;-71
2022/10/24 09:02:26;;;;;;;4.93;1.20;;;21.60;99.90;;;;;;5059201;28;20404;-71
2022/10/24 09:04:56;;;;;;;3.77;1.33;;;22.10;99.90;;;;;;5072503;28;20428;-71
2022/10/24 09:07:22;;;;;;;3.60;1.10;;;22.90;99.90;;;;;;5074092;28;20442;-71
2022/10/24 09:09:51;;;;;;;2.83;1.50;;;23.40;99.90;;;;;;5074008;28;20961;-72
2022/10/24 09:12:19;;;;;;;4.13;1.27;;;23.60;99.90;;;;;;5073502;28;20445;-71
2022/10/24 09:14:50;;;;;;;2.77;1.27;;;23.70;98.90;;;;;;5061876;28;20965;-70
2022/10/24 09:17:34;;;;;;;4.20;1.40;;;23.60;97.40;;;;;;5053970;28;20426;-71
2022/10/24 09:20:18;;;;;;;4.27;1.40;;;23.50;98.40;;;;;;5053882;28;20938;-70
2022/10/24 09:22:44;;;;;;;1.70;0.97;;;23.40;97.40;;;;;;5054073;28;20886;-70
2022/10/24 09:25:21;;;;;;;3.43;1.33;;;22.90;98.20;;;;;;5052431;28;20563;-69
2022/10/24 09:27:46;;;;;;;3.00;1.03;;;22.30;98.40;;;;;;5052155;28;20178;-70
2022/10/24 09:30:23;;;;;;;3.83;1.20;;;22.40;99.90;;;;;;5053709;28;20432;-70
2022/10/24 09:32:50;;;;;;;2.53;1.40;;;22.90;99.90;;;;;;5053486;28;20186;-70
2022/10/24 09:35:21;;;;;;;1.60;1.00;;;23.20;96.20;;;;;;5052265;28;20417;-70
2022/10/24 09:37:50;;;;;;;4.60;1.40;;;22.80;96.30;;;;;;5051827;28;20780;-70
2022/10/24 09:40:21;;;;;;;3.23;1.20;;;22.50;97.50;;;;;;5053472;28;20476;-70
2022/10/24 09:42:53;;;;;;;6.80;1.17;;;22.00;98.10;;;;;;5053205;28;20555;-72
2022/10/24 09:45:19;;;;;;;2.23;1.30;;;21.70;99.90;;;;;;5053144;28;20497;-71
2022/10/24 09:47:44;;;;;;;6.60;1.10;;;21.30;99.90;;;;;;5053202;28;20511;-70
2022/10/24 09:50:21;;;;;;;2.33;1.00;;;21.00;99.90;;;;;;5060653;28;20738;-71
2022/10/24 09:52:51;;;;;;;3.27;1.13;;;20.60;99.90;;;;;;5072706;28;20193;-71
2022/10/24 09:55:20;;;;;;;3.40;1.00;;;20.40;99.90;;;;;;5074933;28;20829;-71
2022/10/24 09:57:46;;;;;;;2.43;0.80;;;20.00;99.90;;;;;;5073459;28;20404;-70
2022/10/24 10:00:30;;;;;;;2.87;1.13;;;19.70;99.90;;;;;;5075271;28;20504;-70
2022/10/24 10:02:57;;;;;;;4.00;1.70;;;19.60;99.90;;;;;;5066935;28;20213;-71
2022/10/24 10:05:22;;;;;;;3.37;1.27;;;19.80;99.90;;;;;;5054980;28;20910;-71
2022/10/24 10:07:50;;;;;;;2.37;0.80;;;20.00;99.90;;;;;;5054224;28;20422;-71
2022/10/24 10:10:32;;;;;;;3.30;1.10;;;20.10;99.90;;;;;;5066149;28;20181;-71
2022/10/24 10:13:22;;;;;;;3.53;0.90;;;19.90;99.90;;;;;;5075267;28;20448;-71
2022/10/24 10:15:52;;;;;;;5.37;1.00;;;20.00;99.90;;;;;;5074124;28;20400;-71
2022/10/24 10:18:39;;;;;;;4.27;1.30;;;20.10;99.90;;;;;;5073396;28;20475;-71
2022/10/24 10:21:08;;;;;;;1.60;0.90;;;20.10;99.90;;;;;;5056422;28;20479;-70
2022/10/24 10:23:37;;;;;;;3.57;1.10;;;20.10;99.90;;;;;;5054861;28;20442;-71
2022/10/24 10:26:17;;;;;;;2.90;0.90;;;20.00;99.90;;;;;;5055182;28;20439;-71
2022/10/24 10:28:47;;;;;;;8.50;1.20;;;20.00;99.90;;;;;;5055581;28;20794;-70
2022/10/24 10:31:14;;;;;;;4.77;1.20;;;20.20;99.90;;;;;;5035678;28;20460;-70
2022/10/24 10:33:55;;;;;;;4.80;1.20;;;20.20;99.90;;;;;;5034766;28;20486;-72
2022/10/24 10:36:35;;;;;;;2.80;1.70;;;20.30;99.90;;;;;;5034936;28;20768;-71
2022/10/24 10:39:21;;;;;;;2.33;0.80;;;20.20;99.90;;;;;;5058148;28;20508;-71
2022/10/24 10:42:00;;;;;;;4.03;1.10;;;20.20;99.90;;;;;;5052885;28;20397;-72
2022/10/24 10:44:29;;;;;;;3.57;0.93;;;20.10;99.90;;;;;;5051791;28;20393;-71
2022/10/24 10:47:05;;;;;;;2.70;1.23;;;20.60;99.90;;;;;;5051963;28;20408;-71
2022/10/24 10:49:39;;;;;;;2.77;0.97;;;20.80;99.90;;;;;;5070624;28;20473;-71
2022/10/24 10:52:21;;;;;;;1.53;0.90;;;20.80;99.90;;;;;;5071444;28;20472;-71
2022/10/24 10:55:05;;;;;;;3.47;1.07;;;20.60;99.90;;;;;;5071572;28;20504;-71
2022/10/24 10:57:44;;;;;;;1.60;1.17;;;20.50;99.90;;;;;;5071856;28;20562;-71
2022/10/24 11:00:16;;;;;;;3.43;1.37;;;20.40;99.90;;;;;;5064714;28;20783;-71
2022/10/24 11:03:16;;;;;;;3.00;1.10;;;20.20;99.90;;;;;;5055476;28;20424;-70
2022/10/24 11:06:00;;;;;;;1.73;0.90;;;20.10;99.90;;;;;;5056295;28;20500;-71
2022/10/24 11:08:38;;;;;;;5.63;1.43;;;20.00;99.90;;;;;;5089393;28;20441;-71
2022/10/24 11:11:34;;;;;;;2.33;1.00;;;20.00;99.90;;;;;;5055760;28;20405;-70
2022/10/24 11:14:27;;;;;;;1.60;0.80;;;19.90;99.90;;;;;;5035566;28;20433;-71
2022/10/24 11:16:56;;;;;;;5.37;1.43;;;20.00;99.90;;;;;;5036410;28;20394;-71
2022/10/24 11:19:34;;;;;;;3.87;1.07;;;20.00;99.90;;;;;;5037901;28;20445;-70
2022/10/24 11:22:03;;;;;;;2.63;0.83;;;20.10;99.90;;;;;;5035786;28;20394;-70
2022/10/24 11:24:43;;;;;;;8.13;1.13;;;20.30;99.90;;;;;;5070153;28;20417;-70
2022/10/24 11:27:16;;;;;;;3.27;0.80;;;20.30;99.90;;;;;;5071264;28;20421;-70
2022/10/24 11:29:49;;;;;;;3.23;0.97;;;20.20;99.90;;;;;;5071085;28;20424;-70
2022/10/24 11:32:25;;;;;;;8.70;1.83;;;20.20;99.90;;;;;;5070505;28;20806;-70
2022/10/24 11:34:58;;;;;;;2.77;0.97;;;20.10;99.90;;;;;;5051220;28;20396;-70
2022/10/24 11:37:30;;;;;;;2.70;1.00;;;20.00;99.90;;;;;;5054516;28;20397;-70
2022/10/24 11:40:01;;;;;;;4.00;1.93;;;19.90;99.90;;;;;;5055457;28;20420;-70
2022/10/24 11:42:36;;;;;;;3.57;0.90;;;19.90;99.90;;;;;;5055741;28;20405;-70
2022/10/24 11:45:19;;;;;;;5.43;1.07;;;19.90;99.90;;;;;;5060145;28;20514;-70
2022/10/24 11:47:53;;;;;;;3.80;1.30;;;19.80;99.90;;;;;;5079082;28;20436;-71
2022/10/24 11:50:37;;;;;;;1.30;0.90;;;19.70;99.90;;;;;;5079876;28;20419;-71
2022/10/24 11:53:17;;;;;;;3.53;1.13;;;19.70;99.90;;;;;;5078950;28;20551;-71
2022/10/24 11:55:56;;;;;;;3.33;1.10;;;19.70;99.90;;;;;;5079625;28;20404;-70
2022/10/24 11:58:26;;;;;;;2.70;1.00;;;19.70;99.90;;;;;;5059760;28;20433;-71
2022/10/24 12:01:40;;;;;;;2.10;1.10;;;19.70;99.90;;;;;;5091613;28;20823;-70
2022/10/24 12:04:41;;;;;;;2.73;0.90;;;19.80;99.90;;;;;;5060938;28;20508;-70
2022/10/24 12:07:30;;;;;;;2.70;1.00;;;19.80;99.90;;;;;;5060906;28;20398;-71
2022/10/24 12:10:20;;;;;;;4.87;1.27;;;19.70;99.90;;;;;;5073747;28;20849;-71
2022/10/24 12:13:09;;;;;;;2.90;1.10;;;19.70;99.90;;;;;;5040197;28;20456;-70
2022/10/24 12:16:07;;;;;;;1.63;0.90;;;19.70;99.90;;;;;;5039183;28;20478;-72
2022/10/24 12:18:41;;;;;;;1.80;0.80;;;19.90;99.90;;;;;;5039129;28;20437;-71
2022/10/24 12:21:11;;;;;;;4.70;1.30;;;19.90;99.90;;;;;;5050622;28;20420;-71
2022/10/24 12:23:39;;;;;;;2.50;1.00;;;19.80;99.90;;;;;;5059399;28;20492;-70
2022/10/24 12:26:13;;;;;;;1.47;0.90;;;19.70;99.90;;;;;;5058216;28;20488;-70
2022/10/24 12:28:40;;;;;;;2.23;2.03;;;19.60;99.90;;;;;;5090969;28;20440;-71
2022/10/24 12:31:10;;;;;;;3.73;1.83;;;19.50;99.90;;;;;;5059459;28;20405;-71
2022/10/24 12:33:35;;;;;;;2.63;1.27;;;19.60;99.90;;;;;;5076036;28;20458;-70
2022/10/24 12:36:01;;;;;;;5.50;1.70;;;19.60;99.90;;;;;;5039216;28;20752;-70
2022/10/24 12:38:26;;;;;;;1.80;0.90;;;19.60;99.90;;;;;;5039201;28;20199;-70
2022/10/24 12:40:56;;;;;;;1.80;1.00;;;19.60;99.90;;;;;;5050550;28;20179;-70
2022/10/24 12:43:36;;;;;;;1.53;0.87;;;19.50;99.90;;;;;;5092555;28;20659;-72
2022/10/24 12:46:23;;;;;;;2.07;1.03;;;19.40;99.90;;;;;;5059954;28;20409;-70
2022/10/24 12:48:57;;;;;;;3.13;0.97;;;19.30;99.90;;;;;;5055983;28;20965;-70
2022/10/24 12:51:26;;;;;;;1.90;1.17;;;19.30;99.90;;;;;;5068528;28;20427;-71
2022/10/24 12:54:09;;;;;;;2.30;1.27;;;19.30;99.90;;;;;;5074047;28;20460;-70
2022/10/24 12:56:57;;;;;;;2.30;1.10;;;19.40;99.90;;;;;;5072663;28;20993;-70
2022/10/24 12:59:31;;;;;;;5.83;1.03;;;19.60;99.90;;;;;;5072693;28;20471;-70
2022/10/24 13:02:12;;;;;;;4.60;1.43;;;19.60;99.90;;;;;;5053941;28;20471;-70
2022/10/24 13:05:08;;;;;;;11.20;1.83;;;19.60;99.90;;;;;;5053653;28;20764;-69